Time;durP1;ratioP1;P1;durP2;ratioP2;P2;SDS_P1;SDS_P2;PMS_P1;PMS_P2;Temp;Humidity;BMP_temperature;BMP_pressure;BME280_temperature;BME280_humidity;BME280_pressure;Samples;Min_cycle;Max_cycle;Signal;HPM_P1;HPM_P2
2022/03/20 00:00:54;;;;;;;8.57;5.38;;;4.20;99.90;;;;;;4913073;29;20647;-76
2022/03/20 00:03:24;;;;;;;12.40;6.15;;;4.10;99.90;;;;;;4929598;29;20052;-77
2022/03/20 00:05:51;;;;;;;11.73;5.75;;;4.10;99.90;;;;;;4916248;29;20078;-81
2022/03/20 00:08:17;;;;;;;17.67;7.00;;;4.10;99.90;;;;;;4913656;29;20139;-76
2022/03/20 00:10:45;;;;;;;12.00;5.80;;;4.10;99.90;;;;;;4930997;29;20126;-77
2022/03/20 00:13:16;;;;;;;15.07;7.22;;;4.10;99.90;;;;;;4933053;29;20059;-76
2022/03/20 00:16:20;;;;;;;11.95;5.65;;;4.00;99.90;;;;;;4941871;29;20190;-76
2022/03/20 00:18:46;;;;;;;12.07;5.47;;;4.00;99.90;;;;;;4935618;29;20047;-76
2022/03/20 00:21:12;;;;;;;16.20;6.63;;;4.00;99.90;;;;;;4951810;29;20054;-77
2022/03/20 00:23:40;;;;;;;9.73;5.25;;;4.00;99.90;;;;;;4919967;29;20055;-77
2022/03/20 00:26:06;;;;;;;9.70;4.93;;;3.90;99.90;;;;;;4935323;29;20692;-78
2022/03/20 00:28:32;;;;;;;12.23;5.60;;;3.90;99.90;;;;;;4951795;29;20053;-76
2022/03/20 00:30:59;;;;;;;11.15;5.07;;;3.90;99.90;;;;;;4935415;28;20502;-77
2022/03/20 00:33:25;;;;;;;13.02;6.53;;;3.90;99.90;;;;;;4938858;29;20061;-76
2022/03/20 00:35:51;;;;;;;15.75;6.30;;;3.90;99.90;;;;;;4939376;29;20110;-76
2022/03/20 00:38:36;;;;;;;14.48;5.80;;;3.90;99.90;;;;;;4956508;29;20094;-77
2022/03/20 00:41:02;;;;;;;8.75;5.07;;;3.90;99.90;;;;;;4923079;29;20051;-76
2022/03/20 00:43:27;;;;;;;12.77;5.40;;;3.90;99.90;;;;;;4955235;29;20082;-77
2022/03/20 00:45:55;;;;;;;8.02;5.05;;;3.90;99.90;;;;;;4939029;29;20155;-76
2022/03/20 00:48:20;;;;;;;9.63;5.97;;;3.90;99.90;;;;;;4955155;29;20595;-77
2022/03/20 00:50:47;;;;;;;11.90;6.30;;;3.80;99.90;;;;;;4921177;29;20058;-78
2022/03/20 00:53:16;;;;;;;12.02;5.10;;;3.90;99.90;;;;;;4939394;29;20087;-77
2022/03/20 00:55:51;;;;;;;10.35;4.95;;;3.80;99.90;;;;;;4919070;29;20081;-76
2022/03/20 00:58:18;;;;;;;15.63;6.43;;;3.80;99.90;;;;;;4902013;29;20484;-76
2022/03/20 01:00:44;;;;;;;10.63;5.18;;;3.80;99.90;;;;;;4918321;29;20051;-77
2022/03/20 01:03:10;;;;;;;12.20;5.63;;;3.80;99.90;;;;;;4918580;29;20507;-76
2022/03/20 01:05:35;;;;;;;11.82;5.95;;;3.80;99.90;;;;;;4934557;29;20060;-76
2022/03/20 01:08:02;;;;;;;15.63;5.70;;;3.80;99.90;;;;;;4934500;29;20055;-76
2022/03/20 01:10:40;;;;;;;12.65;5.57;;;3.80;99.90;;;;;;4918743;29;20051;-76
2022/03/20 01:13:07;;;;;;;12.18;5.60;;;3.80;99.90;;;;;;4934304;29;20052;-76
2022/03/20 01:15:33;;;;;;;12.57;5.95;;;3.80;99.90;;;;;;4902447;29;20047;-77
2022/03/20 01:17:59;;;;;;;16.27;6.40;;;3.70;99.90;;;;;;4918331;29;20058;-77
2022/03/20 01:20:24;;;;;;;12.05;5.93;;;3.70;99.90;;;;;;4918575;29;20067;-77
2022/03/20 01:22:52;;;;;;;17.95;6.63;;;3.70;99.90;;;;;;4934202;29;20058;-77
2022/03/20 01:25:18;;;;;;;13.18;5.72;;;3.70;99.90;;;;;;4934391;29;20169;-77
2022/03/20 01:27:44;;;;;;;15.00;7.28;;;3.70;99.90;;;;;;4938482;29;20050;-78
2022/03/20 01:30:28;;;;;;;16.65;6.80;;;3.70;99.90;;;;;;4914883;29;20059;-77
2022/03/20 01:33:01;;;;;;;13.63;7.13;;;3.70;99.90;;;;;;4899889;29;20059;-77
2022/03/20 01:35:28;;;;;;;12.85;6.65;;;3.70;99.90;;;;;;4899102;29;20070;-76
2022/03/20 01:37:54;;;;;;;13.85;6.40;;;3.60;99.90;;;;;;4899316;29;20131;-76
2022/03/20 01:40:20;;;;;;;12.07;5.78;;;3.60;99.90;;;;;;4915240;29;20067;-76
2022/03/20 01:43:10;;;;;;;13.68;5.90;;;3.60;99.90;;;;;;4898638;29;20056;-77
2022/03/20 01:45:39;;;;;;;16.92;7.18;;;3.60;99.90;;;;;;4884443;29;20064;-76
2022/03/20 01:48:07;;;;;;;16.95;6.38;;;3.60;99.90;;;;;;4903720;29;20452;-78
2022/03/20 01:50:33;;;;;;;11.05;5.57;;;3.60;99.90;;;;;;4901242;29;20055;-76
2022/03/20 01:53:00;;;;;;;18.67;7.40;;;3.60;99.90;;;;;;4915108;29;20062;-76
2022/03/20 01:55:26;;;;;;;14.55;6.53;;;3.50;99.90;;;;;;4899110;29;20163;-76
2022/03/20 01:57:54;;;;;;;17.85;7.35;;;3.50;99.90;;;;;;4899227;29;20055;-77
2022/03/20 02:00:21;;;;;;;15.70;6.88;;;3.50;99.90;;;;;;4886309;28;20052;-76
2022/03/20 02:02:47;;;;;;;15.45;6.75;;;3.50;99.90;;;;;;4941128;28;20042;-76
2022/03/20 02:05:13;;;;;;;14.75;6.97;;;3.50;99.90;;;;;;4957250;28;20053;-76
2022/03/20 02:07:40;;;;;;;15.77;6.93;;;3.50;99.90;;;;;;4956552;28;20053;-76
2022/03/20 02:10:07;;;;;;;15.50;6.85;;;3.50;99.90;;;;;;4956657;28;20057;-76
2022/03/20 02:12:38;;;;;;;14.30;7.28;;;3.40;99.90;;;;;;4956614;28;20141;-76
2022/03/20 02:15:06;;;;;;;18.42;7.70;;;3.40;99.90;;;;;;4940646;28;20058;-76
2022/03/20 02:17:32;;;;;;;17.02;8.43;;;3.40;99.90;;;;;;4941055;28;20061;-76
2022/03/20 02:20:01;;;;;;;14.93;6.45;;;3.40;99.90;;;;;;4940652;28;20499;-76
2022/03/20 02:22:28;;;;;;;18.73;7.32;;;3.40;99.90;;;;;;4956722;28;20502;-77
2022/03/20 02:24:54;;;;;;;14.57;7.35;;;3.40;99.90;;;;;;4940938;28;20387;-77
2022/03/20 02:27:39;;;;;;;13.60;7.47;;;3.40;99.90;;;;;;4955621;28;20053;-77
2022/03/20 02:30:16;;;;;;;16.05;8.05;;;3.30;99.90;;;;;;4972285;28;20395;-77
2022/03/20 02:32:43;;;;;;;;;;;3.30;99.90;;;;;;4941199;28;20062;-76
2022/03/20 02:35:12;;;;;;;17.27;8.40;;;3.30;99.90;;;;;;4940094;28;20029;-76
2022/03/20 02:37:40;;;;;;;17.27;8.85;;;3.20;99.90;;;;;;4956387;28;20058;-76
2022/03/20 02:40:07;;;;;;;15.27;7.75;;;3.20;99.90;;;;;;4957015;28;20054;-76
2022/03/20 02:42:35;;;;;;;16.67;8.18;;;3.20;99.90;;;;;;4943385;28;20054;-78
2022/03/20 02:45:07;;;;;;;17.17;9.00;;;3.20;99.90;;;;;;4959695;28;20425;-77
2022/03/20 02:48:04;;;;;;;17.27;8.40;;;3.20;99.90;;;;;;4958242;28;20129;-76
2022/03/20 02:50:37;;;;;;;17.25;8.10;;;3.10;99.90;;;;;;4955801;28;20059;-77
2022/03/20 02:53:13;;;;;;;18.90;8.88;;;3.10;99.90;;;;;;4940768;28;20531;-76
2022/03/20 02:55:46;;;;;;;16.92;7.95;;;3.10;99.90;;;;;;4971883;28;20055;-76
2022/03/20 02:58:15;;;;;;;17.15;8.48;;;3.00;99.90;;;;;;4955639;28;20046;-77
2022/03/20 03:00:42;;;;;;;19.73;9.80;;;3.00;99.90;;;;;;4955673;28;20414;-77
2022/03/20 03:03:11;;;;;;;17.85;9.43;;;3.00;99.90;;;;;;4956169;28;20145;-76
2022/03/20 03:05:37;;;;;;;15.70;8.40;;;3.00;99.90;;;;;;4973749;28;20061;-76
2022/03/20 03:10:56;;;;;;;21.90;10.45;;;2.90;99.90;;;;;;4956056;28;20054;-77
2022/03/20 03:13:36;;;;;;;;;;;2.90;99.90;;;;;;4941293;28;20061;-77
2022/03/20 03:16:11;;;;;;;22.00;10.10;;;2.90;99.90;;;;;;4955641;28;19944;-76
2022/03/20 03:18:38;;;;;;;20.88;10.25;;;2.90;99.90;;;;;;4939725;28;20046;-76
2022/03/20 03:21:09;;;;;;;19.35;9.68;;;2.90;99.90;;;;;;4939810;28;20051;-77
2022/03/20 03:23:38;;;;;;;21.77;9.95;;;2.90;99.90;;;;;;4955997;28;20043;-77
2022/03/20 03:26:16;;;;;;;23.63;10.57;;;2.90;99.90;;;;;;4977301;28;20071;-77
2022/03/20 03:28:42;;;;;;;20.63;10.90;;;2.90;99.90;;;;;;4944039;28;20051;-77
2022/03/20 03:31:10;;;;;;;19.83;11.10;;;2.80;99.90;;;;;;4971494;28;20058;-77
2022/03/20 03:36:27;;;;;;;22.27;11.43;;;2.80;99.90;;;;;;4903260;29;20504;-77
2022/03/20 03:38:57;;;;;;;21.35;11.20;;;2.80;99.90;;;;;;4916190;29;20143;-77
2022/03/20 03:41:24;;;;;;;20.67;11.20;;;2.80;99.90;;;;;;4929424;29;20142;-77
2022/03/20 03:43:49;;;;;;;21.20;11.40;;;2.80;99.90;;;;;;4915904;29;20529;-77
2022/03/20 03:46:19;;;;;;;22.42;11.80;;;2.80;99.90;;;;;;4915954;29;20062;-77
2022/03/20 03:48:45;;;;;;;18.95;11.90;;;2.80;99.90;;;;;;4916101;29;20052;-77
2022/03/20 03:51:11;;;;;;;22.92;11.32;;;2.80;99.90;;;;;;4899733;29;20125;-78
2022/03/20 03:53:36;;;;;;;21.65;10.90;;;2.80;99.90;;;;;;4932380;29;20130;-77
2022/03/20 03:56:06;;;;;;;20.17;10.60;;;2.80;99.90;;;;;;4916396;29;20542;-76
2022/03/20 03:58:32;;;;;;;26.45;10.85;;;2.80;99.90;;;;;;4916460;29;20178;-77
2022/03/20 04:00:58;;;;;;;23.05;11.00;;;2.80;99.90;;;;;;4905585;29;20056;-77
2022/03/20 04:03:23;;;;;;;23.05;13.02;;;2.80;99.90;;;;;;4878527;29;20063;-77
2022/03/20 04:05:49;;;;;;;19.77;10.38;;;2.80;99.90;;;;;;4878591;29;20076;-77
2022/03/20 04:08:16;;;;;;;23.50;11.88;;;2.80;99.90;;;;;;4900405;29;20128;-77
2022/03/20 04:10:42;;;;;;;22.40;12.23;;;2.70;99.90;;;;;;4884644;29;20095;-77
2022/03/20 04:13:08;;;;;;;21.55;11.15;;;2.80;99.90;;;;;;4893795;29;20051;-77
2022/03/20 04:15:39;;;;;;;21.50;11.45;;;2.70;99.90;;;;;;4939912;29;20055;-77
2022/03/20 04:18:05;;;;;;;19.02;12.43;;;2.70;99.90;;;;;;4939536;29;20107;-77
2022/03/20 04:20:30;;;;;;;22.35;11.70;;;2.60;99.90;;;;;;4924354;29;20043;-77
2022/03/20 04:25:41;;;;;;;22.23;11.70;;;2.60;99.90;;;;;;4939619;29;20055;-77
2022/03/20 04:28:13;;;;;;;22.65;12.57;;;2.60;99.90;;;;;;4939401;29;20062;-77
2022/03/20 04:30:43;;;;;;;19.70;11.52;;;2.60;99.90;;;;;;4939506;29;20055;-76
2022/03/20 04:33:09;;;;;;;20.73;11.40;;;2.60;99.90;;;;;;4939782;29;20051;-77
2022/03/20 04:35:35;;;;;;;24.00;12.98;;;2.50;99.90;;;;;;4939466;29;20054;-76
2022/03/20 04:38:04;;;;;;;24.25;11.75;;;2.50;99.90;;;;;;4939301;29;20447;-77
2022/03/20 04:40:32;;;;;;;21.92;12.10;;;2.40;99.90;;;;;;4923683;29;20122;-76
2022/03/20 04:43:05;;;;;;;26.75;13.63;;;2.40;99.90;;;;;;4939507;29;20077;-77
2022/03/20 04:45:31;;;;;;;23.38;12.75;;;2.30;99.90;;;;;;4923406;29;20054;-76
2022/03/20 04:58:55;;;;;;;21.50;12.35;;;2.30;99.90;;;;;;4942729;29;20051;-78
2022/03/20 05:01:21;;;;;;;23.30;12.30;;;2.20;99.90;;;;;;4950502;28;20078;-77
2022/03/20 05:03:47;;;;;;;24.13;12.00;;;2.20;99.90;;;;;;4957891;28;20509;-76
2022/03/20 05:06:13;;;;;;;27.65;13.45;;;2.20;99.90;;;;;;4958048;28;20055;-77
2022/03/20 05:08:40;;;;;;;26.60;13.82;;;2.20;99.90;;;;;;4925572;28;20054;-77
2022/03/20 05:13:58;;;;;;;28.58;14.52;;;2.10;99.90;;;;;;4976087;28;20109;-78
2022/03/20 05:16:24;;;;;;;30.80;13.52;;;2.10;99.90;;;;;;4957009;28;20059;-77
2022/03/20 05:18:51;;;;;;;28.17;13.65;;;2.10;99.90;;;;;;4973754;28;20077;-77
2022/03/20 05:21:17;;;;;;;26.88;13.93;;;2.10;99.90;;;;;;4957715;28;20521;-77
2022/03/20 05:23:42;;;;;;;24.95;12.75;;;2.10;99.90;;;;;;4941451;28;20043;-76
2022/03/20 05:26:08;;;;;;;21.10;12.93;;;2.00;99.90;;;;;;4957560;28;20051;-77
2022/03/20 05:28:35;;;;;;;28.00;14.50;;;2.00;99.90;;;;;;4973846;28;20058;-76
2022/03/20 05:31:03;;;;;;;25.08;14.18;;;2.00;99.90;;;;;;4941321;28;20502;-77
2022/03/20 05:33:31;;;;;;;25.98;14.23;;;2.00;99.90;;;;;;4957407;28;20090;-77
2022/03/20 05:36:20;;;;;;;27.13;16.08;;;1.90;99.90;;;;;;4957707;28;20058;-77
2022/03/20 05:38:47;;;;;;;26.05;13.68;;;1.90;99.90;;;;;;4956954;28;20050;-77
2022/03/20 05:44:03;;;;;;;28.85;14.80;;;1.90;99.90;;;;;;4973097;28;20050;-77
2022/03/20 05:46:31;;;;;;;26.38;14.00;;;1.90;99.90;;;;;;4957241;28;20057;-77
2022/03/20 05:48:57;;;;;;;25.08;13.77;;;1.90;99.90;;;;;;4957232;28;20521;-77
2022/03/20 05:51:27;;;;;;;31.38;15.65;;;1.90;99.90;;;;;;4956869;28;20063;-78
2022/03/20 05:53:53;;;;;;;27.27;15.10;;;1.90;99.90;;;;;;4956766;28;20047;-78
2022/03/20 05:59:03;;;;;;;30.83;16.02;;;1.90;99.90;;;;;;4960593;28;20098;-77
2022/03/20 06:01:30;;;;;;;27.52;15.00;;;1.90;99.90;;;;;;4957475;28;20490;-77
2022/03/20 06:03:56;;;;;;;35.63;15.32;;;2.00;99.90;;;;;;4943635;28;20055;-78
2022/03/20 06:06:22;;;;;;;29.73;14.73;;;2.00;99.90;;;;;;4978316;28;20074;-77
2022/03/20 06:08:49;;;;;;;29.70;15.88;;;2.00;99.90;;;;;;4956981;28;20050;-77
2022/03/20 06:11:16;;;;;;;28.75;15.05;;;2.00;99.90;;;;;;4957032;28;20094;-77
2022/03/20 06:13:44;;;;;;;29.92;15.25;;;2.10;99.90;;;;;;4940981;28;20117;-77
2022/03/20 06:16:15;;;;;;;32.00;15.30;;;2.10;99.90;;;;;;4956759;28;20054;-77
2022/03/20 06:18:42;;;;;;;31.00;16.05;;;2.10;99.90;;;;;;4940855;28;20061;-77
2022/03/20 06:21:11;;;;;;;27.65;14.77;;;2.20;99.90;;;;;;4939576;28;20057;-77
2022/03/20 06:23:40;;;;;;;24.25;14.70;;;2.20;99.90;;;;;;4956468;28;20668;-77
2022/03/20 06:26:17;;;;;;;30.67;15.65;;;2.20;99.90;;;;;;4940432;28;20063;-78
2022/03/20 06:28:45;;;;;;;26.15;14.70;;;2.20;99.90;;;;;;4940224;28;20105;-77
2022/03/20 06:31:12;;;;;;;29.67;15.35;;;2.30;99.90;;;;;;4940247;28;20124;-77
2022/03/20 06:33:39;;;;;;;31.75;15.38;;;2.40;99.90;;;;;;4956354;28;20059;-77
2022/03/20 06:36:06;;;;;;;31.88;15.32;;;2.40;99.90;;;;;;4940103;28;20494;-78
2022/03/20 06:38:34;;;;;;;27.67;15.35;;;2.50;99.90;;;;;;4956445;28;20042;-77
2022/03/20 06:41:09;;;;;;;28.13;16.15;;;2.50;99.90;;;;;;4956528;28;20133;-77
2022/03/20 06:43:39;;;;;;;28.20;15.73;;;2.60;99.90;;;;;;4956234;28;20055;-77
2022/03/20 06:46:06;;;;;;;26.75;15.32;;;2.70;99.90;;;;;;4956132;28;20395;-77
2022/03/20 06:48:33;;;;;;;29.23;16.45;;;2.70;99.90;;;;;;4956374;28;20082;-78
2022/03/20 06:51:00;;;;;;;30.60;14.57;;;2.80;99.90;;;;;;4955611;28;20534;-78
2022/03/20 06:53:26;;;;;;;24.95;15.35;;;2.80;99.90;;;;;;4956104;28;20066;-77
2022/03/20 06:55:52;;;;;;;27.48;16.27;;;2.90;99.90;;;;;;4956507;28;20419;-78
2022/03/20 06:58:22;;;;;;;25.95;15.13;;;2.90;99.90;;;;;;4961186;28;20050;-77
2022/03/20 07:00:52;;;;;;;29.92;16.23;;;3.00;99.90;;;;;;4957763;28;20059;-77
2022/03/20 07:03:20;;;;;;;27.42;16.33;;;3.10;99.90;;;;;;4973356;28;20133;-77
2022/03/20 07:05:46;;;;;;;24.13;14.68;;;3.10;99.90;;;;;;4939618;28;20086;-78
2022/03/20 07:08:17;;;;;;;26.90;15.23;;;3.30;99.90;;;;;;4956038;28;20046;-78
2022/03/20 07:10:59;;;;;;;27.35;16.10;;;3.40;99.90;;;;;;4972443;28;20494;-77
2022/03/20 07:16:14;;;;;;;25.50;15.30;;;3.60;99.90;;;;;;4955699;28;20085;-78
2022/03/20 07:18:41;;;;;;;26.80;15.18;;;3.70;99.90;;;;;;4955535;28;20061;-78
2022/03/20 07:21:09;;;;;;;26.25;15.25;;;3.80;99.90;;;;;;4955789;28;20419;-78
2022/03/20 07:23:40;;;;;;;26.45;15.20;;;3.90;99.90;;;;;;4955892;28;20054;-78
2022/03/20 07:31:42;;;;;;;24.48;13.88;;;4.10;99.90;;;;;;4926922;28;20062;-77
2022/03/20 07:34:07;;;;;;;25.25;14.77;;;4.20;99.90;;;;;;4955284;28;20051;-78
2022/03/20 07:36:38;;;;;;;27.77;15.60;;;4.30;99.90;;;;;;4973180;28;20411;-78
2022/03/20 07:39:04;;;;;;;28.02;14.65;;;4.50;99.90;;;;;;4939841;28;20051;-78
2022/03/20 07:41:30;;;;;;;22.70;14.40;;;4.60;99.90;;;;;;4972701;28;20054;-78
2022/03/20 07:43:57;;;;;;;24.10;13.43;;;4.60;99.90;;;;;;4973401;28;20055;-78
2022/03/20 07:46:23;;;;;;;25.92;15.48;;;4.70;99.90;;;;;;4973457;28;20121;-76
2022/03/20 07:48:50;;;;;;;25.40;14.23;;;4.80;99.90;;;;;;4973128;28;20494;-77
2022/03/20 07:51:17;;;;;;;25.50;14.50;;;4.80;99.90;;;;;;4939361;28;20047;-76
2022/03/20 07:53:44;;;;;;;28.58;15.25;;;4.90;99.90;;;;;;4940453;28;20454;-78
2022/03/20 07:56:09;;;;;;;25.98;15.25;;;5.00;99.90;;;;;;4957311;28;20502;-77
2022/03/20 07:58:36;;;;;;;24.20;14.40;;;5.10;99.90;;;;;;4938790;28;20127;-77
2022/03/20 08:01:12;;;;;;;26.20;13.63;;;5.30;99.90;;;;;;4955557;28;20050;-77
2022/03/20 08:03:52;;;;;;;28.48;15.57;;;5.50;99.90;;;;;;4973011;28;20075;-77
2022/03/20 08:06:21;;;;;;;24.73;14.32;;;5.60;99.90;;;;;;4955157;28;20051;-77
2022/03/20 08:08:52;;;;;;;23.40;13.90;;;5.70;99.90;;;;;;4969567;28;20051;-77
2022/03/20 08:11:33;;;;;;;27.58;14.75;;;5.80;99.90;;;;;;4942518;28;20051;-77
2022/03/20 08:13:59;;;;;;;24.38;14.00;;;5.70;99.90;;;;;;4955122;28;20046;-78
2022/03/20 08:16:29;;;;;;;25.00;14.20;;;5.70;99.90;;;;;;4972700;28;20055;-77
2022/03/20 08:18:56;;;;;;;26.02;15.70;;;5.90;99.90;;;;;;4939197;28;20429;-78
2022/03/20 08:21:29;;;;;;;;;;;6.00;99.90;;;;;;4955010;28;20051;-78
2022/03/20 08:23:56;;;;;;;27.35;14.02;;;6.00;99.90;;;;;;4955137;28;20333;-78
2022/03/20 08:26:22;;;;;;;28.85;13.93;;;6.10;99.90;;;;;;4954886;28;20054;-77
2022/03/20 08:28:48;;;;;;;28.27;14.32;;;6.20;99.90;;;;;;4938780;28;20062;-76
2022/03/20 08:31:15;;;;;;;24.50;14.10;;;6.20;99.90;;;;;;4938523;28;20061;-76
2022/03/20 08:33:41;;;;;;;24.50;13.73;;;6.20;99.90;;;;;;4955405;28;20465;-77
2022/03/20 08:36:07;;;;;;;26.70;14.27;;;6.30;99.90;;;;;;4954863;28;20054;-77
2022/03/20 08:38:34;;;;;;;25.00;14.50;;;6.30;99.90;;;;;;4939318;28;20521;-77
2022/03/20 08:41:00;;;;;;;23.77;12.95;;;6.40;99.90;;;;;;4954698;28;20199;-78
2022/03/20 08:43:26;;;;;;;23.92;13.63;;;6.50;99.90;;;;;;4938836;28;20050;-77
2022/03/20 08:45:52;;;;;;;24.23;13.90;;;6.60;99.90;;;;;;4954963;28;20534;-78
2022/03/20 08:48:18;;;;;;;24.02;13.80;;;6.80;99.90;;;;;;4938973;28;20167;-78
2022/03/20 08:50:50;;;;;;;22.52;14.00;;;6.90;99.90;;;;;;4954502;29;20434;-78
2022/03/20 08:53:41;;;;;;;20.85;13.65;;;7.00;99.90;;;;;;4942268;29;20125;-78
2022/03/20 08:56:07;;;;;;;24.50;14.30;;;7.20;99.90;;;;;;4943638;29;20059;-77
2022/03/20 08:58:33;;;;;;;23.83;14.65;;;7.30;99.90;;;;;;4958535;29;20098;-77
2022/03/20 09:00:59;;;;;;;23.08;14.07;;;7.50;99.90;;;;;;4956612;29;20426;-78
2022/03/20 09:03:26;;;;;;;24.92;14.00;;;7.60;99.90;;;;;;4939295;29;20137;-77
2022/03/20 09:05:52;;;;;;;23.98;14.35;;;7.60;99.60;;;;;;4955599;29;20052;-77
2022/03/20 09:08:19;;;;;;;24.60;13.85;;;7.60;99.00;;;;;;4958717;29;20130;-79
2022/03/20 09:10:54;;;;;;;27.23;16.13;;;7.80;99.10;;;;;;4944130;29;20059;-80
2022/03/20 09:13:19;;;;;;;25.73;14.93;;;7.80;98.40;;;;;;4943730;29;20062;-77
2022/03/20 09:15:45;;;;;;;26.10;15.27;;;7.90;98.30;;;;;;4959819;29;20055;-77
2022/03/20 09:20:55;;;;;;;25.35;14.57;;;8.00;97.50;;;;;;4956997;29;20142;-77
2022/03/20 09:23:21;;;;;;;28.70;15.25;;;8.20;97.40;;;;;;4939767;29;20135;-78
2022/03/20 09:25:53;;;;;;;25.20;15.82;;;8.20;96.80;;;;;;4956242;29;20094;-77
2022/03/20 09:28:21;;;;;;;29.13;15.32;;;8.40;96.80;;;;;;4970513;28;20047;-78
2022/03/20 09:30:48;;;;;;;27.17;15.27;;;8.50;96.30;;;;;;4954106;29;20082;-78
2022/03/20 09:33:14;;;;;;;26.23;15.25;;;8.60;96.30;;;;;;4938020;29;20510;-78
2022/03/20 09:35:41;;;;;;;24.27;15.10;;;8.70;96.00;;;;;;4954275;29;20059;-78
2022/03/20 09:38:10;;;;;;;26.90;15.93;;;8.90;96.30;;;;;;4938324;29;20126;-78
2022/03/20 09:40:38;;;;;;;27.15;15.52;;;8.80;95.50;;;;;;4922871;29;20685;-79
2022/03/20 09:43:04;;;;;;;27.88;16.38;;;8.90;95.50;;;;;;4938327;29;20082;-78
2022/03/20 09:45:30;;;;;;;32.03;17.02;;;9.00;95.80;;;;;;4955582;28;20055;-78
2022/03/20 09:47:57;;;;;;;30.65;17.27;;;9.20;95.60;;;;;;4954283;29;20057;-79
2022/03/20 09:50:26;;;;;;;24.63;15.30;;;9.30;94.90;;;;;;4971400;28;20074;-79
2022/03/20 09:52:52;;;;;;;26.05;16.23;;;9.30;94.60;;;;;;4974863;28;20578;-77
2022/03/20 09:55:18;;;;;;;26.10;17.38;;;9.50;94.40;;;;;;4898990;29;20078;-78
2022/03/20 09:57:46;;;;;;;27.25;17.45;;;9.50;94.20;;;;;;4930916;29;20064;-77
2022/03/20 10:00:15;;;;;;;31.35;16.88;;;9.60;94.10;;;;;;4899023;29;20048;-77
2022/03/20 10:02:42;;;;;;;30.10;17.40;;;9.70;93.30;;;;;;4882920;29;20052;-78
2022/03/20 10:05:11;;;;;;;24.90;16.40;;;9.90;93.50;;;;;;4898333;29;20531;-78
2022/03/20 10:07:44;;;;;;;26.48;15.15;;;9.90;92.50;;;;;;4898911;29;20139;-79
2022/03/20 10:10:22;;;;;;;26.90;17.90;;;9.80;91.70;;;;;;4884631;29;20063;-78
2022/03/20 10:13:21;;;;;;;38.45;17.73;;;10.00;92.20;;;;;;4918719;29;20056;-80
2022/03/20 10:15:48;;;;;;;30.88;17.02;;;9.90;91.70;;;;;;4854242;29;20512;-77
2022/03/20 10:18:20;;;;;;;27.27;17.38;;;10.20;92.30;;;;;;4862031;29;20085;-78
2022/03/20 10:20:59;;;;;;;26.23;16.65;;;10.20;90.30;;;;;;4876645;29;20057;-78
2022/03/20 10:23:30;;;;;;;26.45;17.15;;;10.40;91.30;;;;;;4877069;29;20462;-78
2022/03/20 10:25:58;;;;;;;27.45;17.23;;;10.40;90.60;;;;;;4887997;29;20056;-77
2022/03/20 10:28:35;;;;;;;30.75;17.65;;;10.60;91.70;;;;;;4882973;29;20095;-77
2022/03/20 10:31:03;;;;;;;33.85;17.80;;;10.60;86.60;;;;;;4914386;29;20511;-78
2022/03/20 10:33:29;;;;;;;30.23;17.25;;;10.50;89.30;;;;;;4898641;29;20087;-77
2022/03/20 10:36:15;;;;;;;25.92;16.42;;;10.80;90.00;;;;;;4882124;29;20048;-78
2022/03/20 10:38:43;;;;;;;28.20;16.63;;;11.00;88.10;;;;;;4914325;29;20640;-77
2022/03/20 10:41:32;;;;;;;27.25;16.80;;;11.00;83.70;;;;;;4898255;29;20048;-77
2022/03/20 10:43:58;;;;;;;29.98;19.02;;;11.10;81.20;;;;;;4914043;29;20104;-78
2022/03/20 10:46:29;;;;;;;28.25;18.27;;;11.00;82.00;;;;;;4896521;29;20055;-77
2022/03/20 10:48:58;;;;;;;26.25;17.27;;;11.20;81.90;;;;;;4937167;29;20066;-77
2022/03/20 10:51:41;;;;;;;28.40;17.88;;;11.40;80.90;;;;;;4906379;29;20052;-78
2022/03/20 10:54:20;;;;;;;29.13;17.65;;;11.30;73.90;;;;;;4936906;29;20058;-78
2022/03/20 10:56:57;;;;;;;27.85;18.10;;;11.50;73.30;;;;;;4922805;29;20047;-77
2022/03/20 10:59:24;;;;;;;30.58;18.58;;;11.60;68.60;;;;;;4905048;29;20101;-78
2022/03/20 11:01:52;;;;;;;29.38;17.50;;;11.60;70.60;;;;;;4937209;29;20047;-77
2022/03/20 11:04:19;;;;;;;28.48;18.45;;;11.80;67.50;;;;;;4936707;29;20565;-77
2022/03/20 11:06:46;;;;;;;25.10;17.65;;;11.90;68.70;;;;;;4937233;29;20065;-76
2022/03/20 11:09:12;;;;;;;32.45;19.00;;;12.00;64.10;;;;;;4938977;29;20051;-78
2022/03/20 11:11:47;;;;;;;27.90;19.08;;;12.20;60.70;;;;;;4960202;29;20058;-78
2022/03/20 11:14:19;;;;;;;28.92;17.67;;;12.50;65.60;;;;;;4941939;29;20149;-78
2022/03/20 11:17:01;;;;;;;33.08;18.67;;;12.50;62.50;;;;;;4939002;29;20059;-78
2022/03/20 11:19:35;;;;;;;28.30;18.35;;;12.60;59.70;;;;;;4937784;29;20082;-77
2022/03/20 11:22:06;;;;;;;31.10;18.85;;;12.70;60.00;;;;;;4938581;29;20051;-78
2022/03/20 11:24:51;;;;;;;31.17;18.33;;;12.80;61.90;;;;;;4936544;29;20058;-78
2022/03/20 11:27:31;;;;;;;28.60;19.65;;;13.00;59.90;;;;;;4936576;29;20055;-77
2022/03/20 11:30:06;;;;;;;30.13;18.20;;;13.30;58.60;;;;;;4936471;29;20063;-78
2022/03/20 11:32:33;;;;;;;26.73;18.55;;;13.50;57.90;;;;;;4936450;29;20051;-78
2022/03/20 11:35:00;;;;;;;31.10;18.85;;;13.60;56.10;;;;;;4936476;29;20054;-78
2022/03/20 11:37:47;;;;;;;27.15;19.02;;;13.90;56.40;;;;;;4953573;29;20110;-78
2022/03/20 11:40:20;;;;;;;31.13;19.77;;;14.10;53.00;;;;;;4953956;29;20403;-78
2022/03/20 11:42:48;;;;;;;31.42;19.88;;;14.40;53.30;;;;;;4936262;29;20199;-78
2022/03/20 11:45:20;;;;;;;28.20;18.00;;;14.10;51.80;;;;;;4936203;29;20055;-77
2022/03/20 11:48:10;;;;;;;27.88;19.05;;;14.00;53.40;;;;;;4936810;29;20085;-78
2022/03/20 11:50:41;;;;;;;31.77;20.42;;;14.30;51.90;;;;;;4937043;28;20078;-76
2022/03/20 11:53:09;;;;;;;31.27;18.75;;;14.40;52.00;;;;;;4955234;28;20055;-76
2022/03/20 11:55:38;;;;;;;29.67;19.27;;;14.40;51.30;;;;;;4939215;28;20410;-76
2022/03/20 11:58:09;;;;;;;28.38;18.40;;;14.80;52.10;;;;;;4955480;28;20086;-77
2022/03/20 12:00:42;;;;;;;32.13;19.40;;;15.00;49.70;;;;;;4955402;28;20498;-78
2022/03/20 12:03:13;;;;;;;29.90;18.70;;;15.20;49.10;;;;;;4974129;28;20565;-77
2022/03/20 12:05:57;;;;;;;28.65;18.52;;;15.10;46.70;;;;;;4940765;28;20051;-76
2022/03/20 12:08:41;;;;;;;30.40;20.17;;;14.70;47.90;;;;;;4942095;28;20406;-76
2022/03/20 12:11:35;;;;;;;32.28;19.20;;;14.90;48.70;;;;;;4957947;28;20405;-77
2022/03/20 12:14:20;;;;;;;31.45;19.13;;;15.40;46.10;;;;;;4977086;28;20050;-78
2022/03/20 12:16:48;;;;;;;25.40;18.08;;;16.00;47.30;;;;;;4959247;28;20068;-77
2022/03/20 12:19:17;;;;;;;31.55;20.25;;;16.40;44.80;;;;;;4977904;28;20093;-76
2022/03/20 12:22:00;;;;;;;28.25;19.42;;;16.50;43.80;;;;;;4960233;28;20046;-77
2022/03/20 12:24:38;;;;;;;25.52;18.25;;;16.80;42.50;;;;;;4944952;28;20057;-77
2022/03/20 12:27:22;;;;;;;29.08;19.08;;;17.20;42.60;;;;;;4939659;28;20074;-77
2022/03/20 12:29:48;;;;;;;29.30;18.30;;;17.60;40.90;;;;;;4958639;28;20062;-76
2022/03/20 12:32:18;;;;;;;28.85;18.40;;;18.20;41.60;;;;;;4959064;28;20130;-75
2022/03/20 12:35:06;;;;;;;32.95;19.10;;;16.50;39.70;;;;;;4958924;28;20173;-76
2022/03/20 12:37:33;;;;;;;29.63;19.08;;;15.80;41.60;;;;;;4976404;28;20134;-76
2022/03/20 12:40:18;;;;;;;30.48;18.90;;;14.70;43.10;;;;;;4958391;28;20043;-76
2022/03/20 12:43:13;;;;;;;27.65;18.52;;;14.00;43.70;;;;;;4957758;28;20059;-75
2022/03/20 12:45:45;;;;;;;30.95;18.65;;;13.70;45.00;;;;;;4958297;28;20510;-76
2022/03/20 12:48:16;;;;;;;32.13;18.95;;;13.60;46.30;;;;;;4975892;28;20130;-76
2022/03/20 12:50:57;;;;;;;29.42;18.95;;;13.80;46.70;;;;;;4958022;28;20051;-77
2022/03/20 12:53:24;;;;;;;37.58;20.05;;;13.70;46.10;;;;;;4975910;28;20077;-76
2022/03/20 12:55:58;;;;;;;30.70;19.60;;;13.80;45.70;;;;;;4975868;28;20090;-76
2022/03/20 12:58:25;;;;;;;28.10;17.65;;;14.10;46.70;;;;;;4957811;28;20047;-76
2022/03/20 13:00:53;;;;;;;24.90;18.52;;;15.50;45.70;;;;;;4975682;28;20085;-76
2022/03/20 13:03:20;;;;;;;28.55;19.00;;;17.10;44.00;;;;;;4958031;28;20442;-75
2022/03/20 13:05:49;;;;;;;31.65;20.23;;;18.00;41.10;;;;;;4957810;28;20215;-76
2022/03/20 13:08:22;;;;;;;31.40;19.25;;;18.80;39.60;;;;;;4942307;28;20047;-75
2022/03/20 13:10:53;;;;;;;31.65;17.83;;;19.50;37.50;;;;;;4958887;28;20065;-76
2022/03/20 13:13:21;;;;;;;26.05;17.40;;;19.00;37.10;;;;;;4975535;28;20454;-76
2022/03/20 13:15:50;;;;;;;26.50;18.75;;;19.50;36.80;;;;;;4975338;28;20109;-76
2022/03/20 13:18:16;;;;;;;30.40;18.67;;;19.70;36.20;;;;;;4973040;28;20388;-76
2022/03/20 13:20:44;;;;;;;27.00;19.00;;;19.20;36.20;;;;;;4957526;28;20059;-75
2022/03/20 13:23:16;;;;;;;31.92;19.08;;;18.50;35.60;;;;;;4957695;28;20061;-75
2022/03/20 13:25:48;;;;;;;26.42;17.85;;;18.30;36.40;;;;;;4957395;28;20050;-76
2022/03/20 13:28:41;;;;;;;29.33;18.52;;;17.90;36.30;;;;;;4926279;28;20643;-76
2022/03/20 13:31:31;;;;;;;27.98;18.10;;;18.30;37.00;;;;;;4955590;28;20524;-76